Strona główna
METAR-TAF:

METAR-TAF

Lotnisko :

Crookston, Minnesota, Stany Zjednoczone

Szerokość geograficzna: 47-51N, Długość geograficzna: 096-37W, wysokość: 273 m

Aktualna obserwacja pogody

Raport powstał 19 minut temu, godzina 04:55 UTC
Wiatr 11 kt od południowo-południowy zachód
Temperatura -4°C
Wilgotność 100%
Ciśnienie 1020 hPa
Widzialność: 8.0 km
Zachmurzenie całkowite na wysokości 600 ft
zamglenie

METAR: KCKN 070455Z AUTO 20011KT 5SM BR OVC006 M04/M04 A3013 RMK AO2

czas: 23:14 (05:14 UTC)


TAF: brakujący

Obserwacja i prognoza pogody dla ponad 4000 lotnisk (raport METAR i TAF).

Dostępne stacje oznaczono żółtymi i czerwonymi punktami na mapie.

Najedź kursorem aby zobaczyć nazwę stacji.

Kliknij aby zobaczyć obserwacje i prognozy pogody.

Aby zmienić mapę: kliknij na zielony przycisk z czarnym krzyżykiem, aby powiększyć; na zielony przycisk z myślnikiem, aby pomniejszyć; na zielone strzałki, aby przejść do map sąsiednich.


METAR-TAF: